sensor_id;sensor_type;location;lat;lon;timestamp;temperature;humidity
67586;SHT31;55785;47.946;20.540;2022-10-16T00:00:31;12.16;81.58
67586;SHT31;55785;47.946;20.540;2022-10-16T00:02:57;12.16;81.47
67586;SHT31;55785;47.946;20.540;2022-10-16T00:05:22;12.12;81.47
67586;SHT31;55785;47.946;20.540;2022-10-16T00:07:47;12.12;81.44
67586;SHT31;55785;47.946;20.540;2022-10-16T00:10:13;12.13;81.53
67586;SHT31;55785;47.946;20.540;2022-10-16T00:12:38;12.03;81.58
67586;SHT31;55785;47.946;20.540;2022-10-16T00:15:04;12.04;81.71
67586;SHT31;55785;47.946;20.540;2022-10-16T00:17:30;11.98;81.68
67586;SHT31;55785;47.946;20.540;2022-10-16T00:19:55;11.91;81.74
67586;SHT31;55785;47.946;20.540;2022-10-16T00:22:20;11.90;81.66
67586;SHT31;55785;47.946;20.540;2022-10-16T00:24:46;11.96;81.66
67586;SHT31;55785;47.946;20.540;2022-10-16T00:27:11;11.96;81.62
67586;SHT31;55785;47.946;20.540;2022-10-16T00:29:36;11.85;81.67
67586;SHT31;55785;47.946;20.540;2022-10-16T00:32:02;11.85;81.74
67586;SHT31;55785;47.946;20.540;2022-10-16T00:34:27;11.79;81.82
67586;SHT31;55785;47.946;20.540;2022-10-16T00:36:52;11.80;81.89
67586;SHT31;55785;47.946;20.540;2022-10-16T00:39:18;11.76;81.92
67586;SHT31;55785;47.946;20.540;2022-10-16T00:41:43;11.79;81.87
67586;SHT31;55785;47.946;20.540;2022-10-16T00:44:47;11.72;81.86
67586;SHT31;55785;47.946;20.540;2022-10-16T00:47:19;11.70;81.74
67586;SHT31;55785;47.946;20.540;2022-10-16T00:49:45;11.63;81.71
67586;SHT31;55785;47.946;20.540;2022-10-16T00:52:13;11.61;81.82
67586;SHT31;55785;47.946;20.540;2022-10-16T00:54:39;11.52;82.10
67586;SHT31;55785;47.946;20.540;2022-10-16T00:57:06;11.46;82.10
67586;SHT31;55785;47.946;20.540;2022-10-16T00:59:41;11.49;82.04
67586;SHT31;55785;47.946;20.540;2022-10-16T01:02:12;11.40;82.14
67586;SHT31;55785;47.946;20.540;2022-10-16T01:04:40;11.39;82.08
67586;SHT31;55785;47.946;20.540;2022-10-16T01:09:49;11.29;82.25
67586;SHT31;55785;47.946;20.540;2022-10-16T01:15:35;11.10;82.79
67586;SHT31;55785;47.946;20.540;2022-10-16T01:18:16;11.11;82.82
67586;SHT31;55785;47.946;20.540;2022-10-16T01:28:25;10.97;83.00
67586;SHT31;55785;47.946;20.540;2022-10-16T01:30:55;10.97;83.03
67586;SHT31;55785;47.946;20.540;2022-10-16T01:33:28;10.94;83.04
67586;SHT31;55785;47.946;20.540;2022-10-16T01:35:59;10.85;83.12
67586;SHT31;55785;47.946;20.540;2022-10-16T01:38:36;10.84;83.48
67586;SHT31;55785;47.946;20.540;2022-10-16T01:41:31;10.69;83.49
67586;SHT31;55785;47.946;20.540;2022-10-16T01:46:26;10.73;83.33
67586;SHT31;55785;47.946;20.540;2022-10-16T01:48:52;10.74;83.41
67586;SHT31;55785;47.946;20.540;2022-10-16T01:51:19;10.76;83.32
67586;SHT31;55785;47.946;20.540;2022-10-16T01:53:52;10.67;83.55
67586;SHT31;55785;47.946;20.540;2022-10-16T01:56:18;10.70;83.46
67586;SHT31;55785;47.946;20.540;2022-10-16T01:58:56;10.73;83.51
67586;SHT31;55785;47.946;20.540;2022-10-16T02:01:24;10.74;83.45
67586;SHT31;55785;47.946;20.540;2022-10-16T02:03:54;10.71;83.41
67586;SHT31;55785;47.946;20.540;2022-10-16T02:06:20;10.73;83.38
67586;SHT31;55785;47.946;20.540;2022-10-16T02:08:46;10.74;83.42
67586;SHT31;55785;47.946;20.540;2022-10-16T02:11:11;10.74;83.38
67586;SHT31;55785;47.946;20.540;2022-10-16T02:13:45;10.70;83.30
67586;SHT31;55785;47.946;20.540;2022-10-16T02:16:12;10.73;83.29
67586;SHT31;55785;47.946;20.540;2022-10-16T02:18:38;10.69;83.39
67586;SHT31;55785;47.946;20.540;2022-10-16T02:23:49;10.73;83.19
67586;SHT31;55785;47.946;20.540;2022-10-16T02:26:26;10.74;83.18
67586;SHT31;55785;47.946;20.540;2022-10-16T02:28:55;10.76;83.15
67586;SHT31;55785;47.946;20.540;2022-10-16T02:31:27;10.76;83.11
67586;SHT31;55785;47.946;20.540;2022-10-16T02:33:55;10.74;83.07
67586;SHT31;55785;47.946;20.540;2022-10-16T02:36:23;10.73;83.04
67586;SHT31;55785;47.946;20.540;2022-10-16T02:38:49;10.67;83.11
67586;SHT31;55785;47.946;20.540;2022-10-16T02:41:14;10.69;82.98
67586;SHT31;55785;47.946;20.540;2022-10-16T02:43:40;10.66;82.95
67586;SHT31;55785;47.946;20.540;2022-10-16T02:46:05;10.48;82.93
67586;SHT31;55785;47.946;20.540;2022-10-16T02:48:30;10.43;82.40
67586;SHT31;55785;47.946;20.540;2022-10-16T02:50:56;10.33;82.74
67586;SHT31;55785;47.946;20.540;2022-10-16T02:53:21;10.25;82.90
67586;SHT31;55785;47.946;20.540;2022-10-16T02:55:46;10.12;82.88
67586;SHT31;55785;47.946;20.540;2022-10-16T02:58:12;9.75;82.80
67586;SHT31;55785;47.946;20.540;2022-10-16T03:00:37;9.73;83.08
67586;SHT31;55785;47.946;20.540;2022-10-16T03:03:02;9.74;83.10
67586;SHT31;55785;47.946;20.540;2022-10-16T03:05:28;9.73;83.28
67586;SHT31;55785;47.946;20.540;2022-10-16T03:07:53;9.44;83.38
67586;SHT31;55785;47.946;20.540;2022-10-16T03:10:18;9.37;82.93
67586;SHT31;55785;47.946;20.540;2022-10-16T03:12:44;9.29;83.43
67586;SHT31;55785;47.946;20.540;2022-10-16T03:15:09;9.23;83.91
67586;SHT31;55785;47.946;20.540;2022-10-16T03:17:35;9.27;83.75
67586;SHT31;55785;47.946;20.540;2022-10-16T03:20:00;9.16;83.74
67586;SHT31;55785;47.946;20.540;2022-10-16T03:22:25;9.05;84.04
67586;SHT31;55785;47.946;20.540;2022-10-16T03:24:51;9.06;83.92
67586;SHT31;55785;47.946;20.540;2022-10-16T03:27:16;9.01;84.16
67586;SHT31;55785;47.946;20.540;2022-10-16T03:29:41;9.04;84.11
67586;SHT31;55785;47.946;20.540;2022-10-16T03:32:07;9.02;84.10
67586;SHT31;55785;47.946;20.540;2022-10-16T03:34:32;8.98;84.24
67586;SHT31;55785;47.946;20.540;2022-10-16T03:36:57;9.01;84.21
67586;SHT31;55785;47.946;20.540;2022-10-16T03:39:23;8.93;84.50
67586;SHT31;55785;47.946;20.540;2022-10-16T03:41:48;8.93;84.26
67586;SHT31;55785;47.946;20.540;2022-10-16T03:44:13;8.85;84.44
67586;SHT31;55785;47.946;20.540;2022-10-16T03:46:39;8.89;84.49
67586;SHT31;55785;47.946;20.540;2022-10-16T03:49:04;8.85;84.72
67586;SHT31;55785;47.946;20.540;2022-10-16T03:51:30;8.92;84.84
67586;SHT31;55785;47.946;20.540;2022-10-16T03:53:55;8.95;85.04
67586;SHT31;55785;47.946;20.540;2022-10-16T03:56:21;8.96;85.08
67586;SHT31;55785;47.946;20.540;2022-10-16T03:58:46;8.98;85.00
67586;SHT31;55785;47.946;20.540;2022-10-16T04:01:11;8.99;84.97
67586;SHT31;55785;47.946;20.540;2022-10-16T04:03:37;8.96;84.98
67586;SHT31;55785;47.946;20.540;2022-10-16T04:06:02;8.99;85.00
67586;SHT31;55785;47.946;20.540;2022-10-16T04:08:27;8.98;84.82
67586;SHT31;55785;47.946;20.540;2022-10-16T04:10:53;8.99;84.79
67586;SHT31;55785;47.946;20.540;2022-10-16T04:13:18;8.96;84.59
67586;SHT31;55785;47.946;20.540;2022-10-16T04:15:45;8.93;84.53
67586;SHT31;55785;47.946;20.540;2022-10-16T04:18:10;8.85;84.59
67586;SHT31;55785;47.946;20.540;2022-10-16T04:20:36;8.91;84.48
67586;SHT31;55785;47.946;20.540;2022-10-16T04:23:01;8.79;84.55
67586;SHT31;55785;47.946;20.540;2022-10-16T04:25:26;8.84;84.50
67586;SHT31;55785;47.946;20.540;2022-10-16T04:27:55;8.74;84.52
67586;SHT31;55785;47.946;20.540;2022-10-16T04:30:21;8.78;84.57
67586;SHT31;55785;47.946;20.540;2022-10-16T04:32:51;8.74;84.47
67586;SHT31;55785;47.946;20.540;2022-10-16T04:35:17;8.69;84.65
67586;SHT31;55785;47.946;20.540;2022-10-16T04:37:43;8.67;84.59
67586;SHT31;55785;47.946;20.540;2022-10-16T04:40:08;8.65;84.67
67586;SHT31;55785;47.946;20.540;2022-10-16T04:42:34;8.67;84.56
67586;SHT31;55785;47.946;20.540;2022-10-16T04:44:59;8.67;84.59
67586;SHT31;55785;47.946;20.540;2022-10-16T04:47:24;8.61;84.51
67586;SHT31;55785;47.946;20.540;2022-10-16T04:49:50;8.60;84.43
67586;SHT31;55785;47.946;20.540;2022-10-16T04:52:15;8.63;84.48
67586;SHT31;55785;47.946;20.540;2022-10-16T04:54:40;8.60;84.39
67586;SHT31;55785;47.946;20.540;2022-10-16T04:57:06;8.61;84.32
67586;SHT31;55785;47.946;20.540;2022-10-16T04:59:31;8.58;84.50
67586;SHT31;55785;47.946;20.540;2022-10-16T05:01:56;8.60;84.42
67586;SHT31;55785;47.946;20.540;2022-10-16T05:04:22;8.60;84.44
67586;SHT31;55785;47.946;20.540;2022-10-16T05:06:47;8.58;84.45
67586;SHT31;55785;47.946;20.540;2022-10-16T05:09:13;8.46;84.59
67586;SHT31;55785;47.946;20.540;2022-10-16T05:11:38;8.48;84.58
67586;SHT31;55785;47.946;20.540;2022-10-16T05:14:03;8.48;84.62
67586;SHT31;55785;47.946;20.540;2022-10-16T05:16:29;8.48;84.58
67586;SHT31;55785;47.946;20.540;2022-10-16T05:18:54;8.50;84.48
67586;SHT31;55785;47.946;20.540;2022-10-16T05:21:20;8.51;84.51
67586;SHT31;55785;47.946;20.540;2022-10-16T05:23:45;8.53;84.44
67586;SHT31;55785;47.946;20.540;2022-10-16T05:26:11;8.51;84.61
67586;SHT31;55785;47.946;20.540;2022-10-16T05:28:36;8.50;84.64
67586;SHT31;55785;47.946;20.540;2022-10-16T05:31:09;8.55;84.76
67586;SHT31;55785;47.946;20.540;2022-10-16T05:33:34;8.50;84.79
67586;SHT31;55785;47.946;20.540;2022-10-16T05:36:08;8.63;84.80
67586;SHT31;55785;47.946;20.540;2022-10-16T05:38:35;8.65;84.85
67586;SHT31;55785;47.946;20.540;2022-10-16T05:41:02;8.58;84.95
67586;SHT31;55785;47.946;20.540;2022-10-16T05:43:28;8.64;85.03
67586;SHT31;55785;47.946;20.540;2022-10-16T05:45:59;8.68;85.13
67586;SHT31;55785;47.946;20.540;2022-10-16T05:48:24;8.76;84.97
67586;SHT31;55785;47.946;20.540;2022-10-16T05:51:00;8.71;85.04
67586;SHT31;55785;47.946;20.540;2022-10-16T05:53:27;8.76;85.00
67586;SHT31;55785;47.946;20.540;2022-10-16T05:55:54;8.79;84.87
67586;SHT31;55785;47.946;20.540;2022-10-16T05:58:20;8.82;84.83
67586;SHT31;55785;47.946;20.540;2022-10-16T06:00:59;8.84;84.90
67586;SHT31;55785;47.946;20.540;2022-10-16T06:03:24;8.84;84.87
67586;SHT31;55785;47.946;20.540;2022-10-16T06:05:50;8.86;85.00
67586;SHT31;55785;47.946;20.540;2022-10-16T06:08:16;8.93;85.08
67586;SHT31;55785;47.946;20.540;2022-10-16T06:10:41;8.96;85.20
67586;SHT31;55785;47.946;20.540;2022-10-16T06:13:06;8.98;85.19
67586;SHT31;55785;47.946;20.540;2022-10-16T06:15:32;9.04;85.28
67586;SHT31;55785;47.946;20.540;2022-10-16T06:17:57;9.13;85.35
67586;SHT31;55785;47.946;20.540;2022-10-16T06:20:22;9.23;85.36
67586;SHT31;55785;47.946;20.540;2022-10-16T06:22:47;9.36;85.24
67586;SHT31;55785;47.946;20.540;2022-10-16T06:25:13;9.53;84.63
67586;SHT31;55785;47.946;20.540;2022-10-16T06:27:41;9.63;84.32
67586;SHT31;55785;47.946;20.540;2022-10-16T06:30:07;9.71;84.43
67586;SHT31;55785;47.946;20.540;2022-10-16T06:32:32;9.82;84.01
67586;SHT31;55785;47.946;20.540;2022-10-16T06:34:58;9.97;83.71
67586;SHT31;55785;47.946;20.540;2022-10-16T06:37:23;10.01;83.51
67586;SHT31;55785;47.946;20.540;2022-10-16T06:39:48;10.11;83.50
67586;SHT31;55785;47.946;20.540;2022-10-16T06:42:14;10.15;84.72
67586;SHT31;55785;47.946;20.540;2022-10-16T06:44:39;10.16;84.95
67586;SHT31;55785;47.946;20.540;2022-10-16T06:47:04;10.28;85.06
67586;SHT31;55785;47.946;20.540;2022-10-16T06:49:30;10.32;83.62
67586;SHT31;55785;47.946;20.540;2022-10-16T06:51:55;10.63;84.81
67586;SHT31;55785;47.946;20.540;2022-10-16T06:54:20;10.71;85.36
67586;SHT31;55785;47.946;20.540;2022-10-16T06:56:45;10.71;84.98
67586;SHT31;55785;47.946;20.540;2022-10-16T06:59:11;10.83;84.55
67586;SHT31;55785;47.946;20.540;2022-10-16T07:01:36;10.80;83.06
67586;SHT31;55785;47.946;20.540;2022-10-16T07:04:02;11.11;83.93
67586;SHT31;55785;47.946;20.540;2022-10-16T07:06:31;11.07;81.96
67586;SHT31;55785;47.946;20.540;2022-10-16T07:08:56;11.19;81.43
67586;SHT31;55785;47.946;20.540;2022-10-16T07:11:23;11.32;81.70
67586;SHT31;55785;47.946;20.540;2022-10-16T07:13:49;11.40;82.54
67586;SHT31;55785;47.946;20.540;2022-10-16T07:16:17;11.49;82.01
67586;SHT31;55785;47.946;20.540;2022-10-16T07:18:44;11.61;81.68
67586;SHT31;55785;47.946;20.540;2022-10-16T07:21:17;11.77;82.53
67586;SHT31;55785;47.946;20.540;2022-10-16T07:23:43;12.00;81.97
67586;SHT31;55785;47.946;20.540;2022-10-16T07:26:09;12.12;81.83
67586;SHT31;55785;47.946;20.540;2022-10-16T07:28:35;12.25;80.52
67586;SHT31;55785;47.946;20.540;2022-10-16T07:31:09;12.49;79.02
67586;SHT31;55785;47.946;20.540;2022-10-16T07:33:35;12.66;79.39
67586;SHT31;55785;47.946;20.540;2022-10-16T07:36:00;12.75;78.99
67586;SHT31;55785;47.946;20.540;2022-10-16T07:38:26;12.86;78.81
67586;SHT31;55785;47.946;20.540;2022-10-16T07:40:59;13.00;77.94
67586;SHT31;55785;47.946;20.540;2022-10-16T07:43:25;13.00;77.60
67586;SHT31;55785;47.946;20.540;2022-10-16T07:45:51;13.10;74.22
67586;SHT31;55785;47.946;20.540;2022-10-16T07:48:17;13.13;73.89
67586;SHT31;55785;47.946;20.540;2022-10-16T07:50:43;13.12;73.99
67586;SHT31;55785;47.946;20.540;2022-10-16T07:53:10;13.16;72.75
67586;SHT31;55785;47.946;20.540;2022-10-16T07:55:35;13.24;72.05
67586;SHT31;55785;47.946;20.540;2022-10-16T07:58:01;13.36;72.41
67586;SHT31;55785;47.946;20.540;2022-10-16T08:00:26;13.43;72.90
67586;SHT31;55785;47.946;20.540;2022-10-16T08:02:51;13.58;73.63
67586;SHT31;55785;47.946;20.540;2022-10-16T08:05:17;13.68;71.65
67586;SHT31;55785;47.946;20.540;2022-10-16T08:07:42;13.74;70.13
67586;SHT31;55785;47.946;20.540;2022-10-16T08:10:16;13.97;70.55
67586;SHT31;55785;47.946;20.540;2022-10-16T08:12:42;14.05;72.97
67586;SHT31;55785;47.946;20.540;2022-10-16T08:15:07;14.09;70.24
67586;SHT31;55785;47.946;20.540;2022-10-16T08:17:33;14.30;73.62
67586;SHT31;55785;47.946;20.540;2022-10-16T08:19:58;14.26;67.59
67586;SHT31;55785;47.946;20.540;2022-10-16T08:22:24;14.39;68.86
67586;SHT31;55785;47.946;20.540;2022-10-16T08:24:49;14.40;69.83
67586;SHT31;55785;47.946;20.540;2022-10-16T08:27:14;14.46;67.92
67586;SHT31;55785;47.946;20.540;2022-10-16T08:29:39;14.53;70.02
67586;SHT31;55785;47.946;20.540;2022-10-16T08:32:05;14.66;67.64
67586;SHT31;55785;47.946;20.540;2022-10-16T08:34:30;14.70;67.39
67586;SHT31;55785;47.946;20.540;2022-10-16T08:36:55;14.76;68.41
67586;SHT31;55785;47.946;20.540;2022-10-16T08:39:21;14.83;66.81
67586;SHT31;55785;47.946;20.540;2022-10-16T08:42:11;14.85;66.25
67586;SHT31;55785;47.946;20.540;2022-10-16T08:47:21;14.92;65.87
67586;SHT31;55785;47.946;20.540;2022-10-16T08:49:59;15.02;67.12
67586;SHT31;55785;47.946;20.540;2022-10-16T08:52:29;15.06;66.00
67586;SHT31;55785;47.946;20.540;2022-10-16T08:54:56;15.11;66.82
67586;SHT31;55785;47.946;20.540;2022-10-16T08:57:24;15.21;66.12
67586;SHT31;55785;47.946;20.540;2022-10-16T08:59:49;15.36;66.65
67586;SHT31;55785;47.946;20.540;2022-10-16T09:02:24;15.42;65.66
67586;SHT31;55785;47.946;20.540;2022-10-16T09:05:01;15.45;65.24
67586;SHT31;55785;47.946;20.540;2022-10-16T09:18:45;15.76;63.26
67586;SHT31;55785;47.946;20.540;2022-10-16T09:21:16;15.87;63.32
67586;SHT31;55785;47.946;20.540;2022-10-16T09:23:43;15.76;64.15
67586;SHT31;55785;47.946;20.540;2022-10-16T09:26:12;15.84;67.17
67586;SHT31;55785;47.946;20.540;2022-10-16T09:28:38;15.76;64.69
67586;SHT31;55785;47.946;20.540;2022-10-16T09:31:03;15.86;66.73
67586;SHT31;55785;47.946;20.540;2022-10-16T09:33:33;16.11;66.21
67586;SHT31;55785;47.946;20.540;2022-10-16T09:36:02;16.15;64.57
67586;SHT31;55785;47.946;20.540;2022-10-16T09:38:30;16.25;65.34
67586;SHT31;55785;47.946;20.540;2022-10-16T09:40:58;16.14;65.01
67586;SHT31;55785;47.946;20.540;2022-10-16T09:43:28;16.15;65.71
67586;SHT31;55785;47.946;20.540;2022-10-16T09:45:55;16.20;62.10
67586;SHT31;55785;47.946;20.540;2022-10-16T09:48:21;16.22;61.47
67586;SHT31;55785;47.946;20.540;2022-10-16T09:51:01;16.38;63.30
67586;SHT31;55785;47.946;20.540;2022-10-16T09:53:39;16.47;61.67
67586;SHT31;55785;47.946;20.540;2022-10-16T09:56:05;16.35;61.12
67586;SHT31;55785;47.946;20.540;2022-10-16T09:58:30;16.49;60.88
67586;SHT31;55785;47.946;20.540;2022-10-16T10:00:56;16.61;60.87
67586;SHT31;55785;47.946;20.540;2022-10-16T10:06:00;16.61;61.06
67586;SHT31;55785;47.946;20.540;2022-10-16T10:08:25;16.70;60.28
67586;SHT31;55785;47.946;20.540;2022-10-16T10:10:51;16.84;61.29
67586;SHT31;55785;47.946;20.540;2022-10-16T10:13:19;16.94;60.69
67586;SHT31;55785;47.946;20.540;2022-10-16T10:15:45;17.00;61.22
67586;SHT31;55785;47.946;20.540;2022-10-16T10:18:18;17.24;63.54
67586;SHT31;55785;47.946;20.540;2022-10-16T10:20:44;17.20;59.70
67586;SHT31;55785;47.946;20.540;2022-10-16T10:23:22;17.13;58.77
67586;SHT31;55785;47.946;20.540;2022-10-16T10:34:11;17.78;60.51
67586;SHT31;55785;47.946;20.540;2022-10-16T10:36:43;17.68;62.27
67586;SHT31;55785;47.946;20.540;2022-10-16T10:39:31;17.58;60.30
67586;SHT31;55785;47.946;20.540;2022-10-16T10:42:39;17.74;59.37
67586;SHT31;55785;47.946;20.540;2022-10-16T10:50:41;18.09;60.26
67586;SHT31;55785;47.946;20.540;2022-10-16T10:56:06;18.30;58.00
67586;SHT31;55785;47.946;20.540;2022-10-16T11:04:29;18.92;56.76
67586;SHT31;55785;47.946;20.540;2022-10-16T11:07:02;19.59;56.62
67586;SHT31;55785;47.946;20.540;2022-10-16T11:09:41;20.11;57.39
67586;SHT31;55785;47.946;20.540;2022-10-16T11:12:27;21.04;49.38
67586;SHT31;55785;47.946;20.540;2022-10-16T11:15:05;20.56;51.66
67586;SHT31;55785;47.946;20.540;2022-10-16T11:17:45;20.49;53.93
67586;SHT31;55785;47.946;20.540;2022-10-16T11:20:37;20.83;50.50
67586;SHT31;55785;47.946;20.540;2022-10-16T11:23:14;20.93;47.55
67586;SHT31;55785;47.946;20.540;2022-10-16T11:25:43;21.20;52.55
67586;SHT31;55785;47.946;20.540;2022-10-16T11:30:47;20.93;49.79
67586;SHT31;55785;47.946;20.540;2022-10-16T11:38:45;20.81;48.50
67586;SHT31;55785;47.946;20.540;2022-10-16T11:41:24;20.83;50.42
67586;SHT31;55785;47.946;20.540;2022-10-16T11:46:26;20.49;52.00
67586;SHT31;55785;47.946;20.540;2022-10-16T11:48:57;20.55;52.99
67586;SHT31;55785;47.946;20.540;2022-10-16T11:51:36;20.17;54.13
67586;SHT31;55785;47.946;20.540;2022-10-16T11:56:56;19.75;52.60
67586;SHT31;55785;47.946;20.540;2022-10-16T11:59:28;19.87;57.81
67586;SHT31;55785;47.946;20.540;2022-10-16T12:04:45;19.19;54.09
67586;SHT31;55785;47.946;20.540;2022-10-16T12:07:22;19.05;54.79
67586;SHT31;55785;47.946;20.540;2022-10-16T12:09:48;19.16;55.27
67586;SHT31;55785;47.946;20.540;2022-10-16T12:15:00;19.02;55.29
67586;SHT31;55785;47.946;20.540;2022-10-16T12:17:35;19.18;58.25
67586;SHT31;55785;47.946;20.540;2022-10-16T12:20:19;19.18;57.13
67586;SHT31;55785;47.946;20.540;2022-10-16T12:22:54;19.11;53.02
67586;SHT31;55785;47.946;20.540;2022-10-16T12:25:22;19.29;55.37
67586;SHT31;55785;47.946;20.540;2022-10-16T12:28:00;19.19;57.44
67586;SHT31;55785;47.946;20.540;2022-10-16T12:30:28;19.01;53.84
67586;SHT31;55785;47.946;20.540;2022-10-16T12:32:56;19.23;53.42
67586;SHT31;55785;47.946;20.540;2022-10-16T12:35:33;19.47;51.61
67586;SHT31;55785;47.946;20.540;2022-10-16T12:38:07;19.80;51.55
67586;SHT31;55785;47.946;20.540;2022-10-16T12:40:35;19.84;52.47
67586;SHT31;55785;47.946;20.540;2022-10-16T12:45:45;19.37;56.06
67586;SHT31;55785;47.946;20.540;2022-10-16T12:48:28;19.33;54.38
67586;SHT31;55785;47.946;20.540;2022-10-16T12:50:54;19.37;54.31
67586;SHT31;55785;47.946;20.540;2022-10-16T12:53:20;19.47;53.31
67586;SHT31;55785;47.946;20.540;2022-10-16T12:56:02;19.63;53.62
67586;SHT31;55785;47.946;20.540;2022-10-16T13:18:29;18.91;56.84
67586;SHT31;55785;47.946;20.540;2022-10-16T13:21:18;18.78;56.57
67586;SHT31;55785;47.946;20.540;2022-10-16T13:29:53;18.82;59.02
67586;SHT31;55785;47.946;20.540;2022-10-16T13:32:19;18.68;55.37
67586;SHT31;55785;47.946;20.540;2022-10-16T13:34:47;18.37;58.65
67586;SHT31;55785;47.946;20.540;2022-10-16T13:37:21;18.24;56.85
67586;SHT31;55785;47.946;20.540;2022-10-16T13:39:47;18.12;60.14
67586;SHT31;55785;47.946;20.540;2022-10-16T13:42:18;18.14;58.38
67586;SHT31;55785;47.946;20.540;2022-10-16T13:44:53;18.20;58.87
67586;SHT31;55785;47.946;20.540;2022-10-16T13:49:47;18.44;57.10
67586;SHT31;55785;47.946;20.540;2022-10-16T13:52:23;18.53;58.67
67586;SHT31;55785;47.946;20.540;2022-10-16T13:54:48;18.55;58.87
67586;SHT31;55785;47.946;20.540;2022-10-16T13:57:15;18.61;55.19
67586;SHT31;55785;47.946;20.540;2022-10-16T13:59:40;18.68;58.02
67586;SHT31;55785;47.946;20.540;2022-10-16T14:02:17;18.79;58.67
67586;SHT31;55785;47.946;20.540;2022-10-16T14:04:44;18.88;56.16
67586;SHT31;55785;47.946;20.540;2022-10-16T14:07:30;18.92;55.24
67586;SHT31;55785;47.946;20.540;2022-10-16T14:10:05;19.12;55.46
67586;SHT31;55785;47.946;20.540;2022-10-16T14:12:32;19.20;55.18
67586;SHT31;55785;47.946;20.540;2022-10-16T14:14:58;19.29;53.27
67586;SHT31;55785;47.946;20.540;2022-10-16T14:17:29;19.02;53.21
67586;SHT31;55785;47.946;20.540;2022-10-16T14:19:58;19.13;53.19
67586;SHT31;55785;47.946;20.540;2022-10-16T14:22:40;19.23;53.01
67586;SHT31;55785;47.946;20.540;2022-10-16T14:30:25;18.54;54.97
67586;SHT31;55785;47.946;20.540;2022-10-16T14:33:00;18.60;53.87
67586;SHT31;55785;47.946;20.540;2022-10-16T14:37:55;18.85;52.98
67586;SHT31;55785;47.946;20.540;2022-10-16T14:40:27;18.94;52.59
67586;SHT31;55785;47.946;20.540;2022-10-16T14:42:53;19.05;55.27
67586;SHT31;55785;47.946;20.540;2022-10-16T14:45:21;18.98;57.38
67586;SHT31;55785;47.946;20.540;2022-10-16T14:47:51;18.85;55.84
67586;SHT31;55785;47.946;20.540;2022-10-16T14:50:17;18.64;58.20
67586;SHT31;55785;47.946;20.540;2022-10-16T14:52:42;18.57;54.90
67586;SHT31;55785;47.946;20.540;2022-10-16T14:55:09;18.47;57.00
67586;SHT31;55785;47.946;20.540;2022-10-16T14:57:36;18.32;58.26
67586;SHT31;55785;47.946;20.540;2022-10-16T15:00:06;18.26;58.39
67586;SHT31;55785;47.946;20.540;2022-10-16T15:02:35;18.16;59.71
67586;SHT31;55785;47.946;20.540;2022-10-16T15:05:11;17.99;58.58
67586;SHT31;55785;47.946;20.540;2022-10-16T15:07:37;17.79;59.25
67586;SHT31;55785;47.946;20.540;2022-10-16T15:10:02;17.72;59.63
67586;SHT31;55785;47.946;20.540;2022-10-16T15:12:28;17.65;61.07
67586;SHT31;55785;47.946;20.540;2022-10-16T15:14:53;17.54;61.77
67586;SHT31;55785;47.946;20.540;2022-10-16T15:17:18;17.39;61.50
67586;SHT31;55785;47.946;20.540;2022-10-16T15:19:44;17.21;63.26
67586;SHT31;55785;47.946;20.540;2022-10-16T15:22:11;17.07;64.96
67586;SHT31;55785;47.946;20.540;2022-10-16T15:24:36;16.99;65.32
67586;SHT31;55785;47.946;20.540;2022-10-16T15:27:02;16.66;64.92
67586;SHT31;55785;47.946;20.540;2022-10-16T15:29:27;16.55;65.12
67586;SHT31;55785;47.946;20.540;2022-10-16T15:31:52;16.45;66.55
67586;SHT31;55785;47.946;20.540;2022-10-16T15:34:18;16.17;67.18
67586;SHT31;55785;47.946;20.540;2022-10-16T15:36:43;16.17;66.33
67586;SHT31;55785;47.946;20.540;2022-10-16T15:39:17;16.07;66.71
67586;SHT31;55785;47.946;20.540;2022-10-16T15:41:42;15.82;67.20
67586;SHT31;55785;47.946;20.540;2022-10-16T15:44:08;15.69;68.07
67586;SHT31;55785;47.946;20.540;2022-10-16T15:46:34;15.47;68.77
67586;SHT31;55785;47.946;20.540;2022-10-16T15:49:00;15.32;69.80
67586;SHT31;55785;47.946;20.540;2022-10-16T15:51:26;15.26;70.34
67586;SHT31;55785;47.946;20.540;2022-10-16T15:53:52;15.15;71.04
67586;SHT31;55785;47.946;20.540;2022-10-16T15:56:17;15.09;71.33
67586;SHT31;55785;47.946;20.540;2022-10-16T15:58:43;15.02;71.40
67586;SHT31;55785;47.946;20.540;2022-10-16T16:01:09;14.97;71.48
67586;SHT31;55785;47.946;20.540;2022-10-16T16:03:35;14.88;72.26
67586;SHT31;55785;47.946;20.540;2022-10-16T16:06:09;14.78;72.14
67586;SHT31;55785;47.946;20.540;2022-10-16T16:08:35;14.77;72.57
67586;SHT31;55785;47.946;20.540;2022-10-16T16:13:28;14.34;73.56
67586;SHT31;55785;47.946;20.540;2022-10-16T16:15:53;14.51;73.10
67586;SHT31;55785;47.946;20.540;2022-10-16T16:18:19;14.50;72.95
67586;SHT31;55785;47.946;20.540;2022-10-16T16:20:44;14.49;72.88
67586;SHT31;55785;47.946;20.540;2022-10-16T16:23:09;14.36;73.23
67586;SHT31;55785;47.946;20.540;2022-10-16T16:25:35;14.34;73.37
67586;SHT31;55785;47.946;20.540;2022-10-16T16:28:00;14.40;73.48
67586;SHT31;55785;47.946;20.540;2022-10-16T16:30:25;14.41;73.25
67586;SHT31;55785;47.946;20.540;2022-10-16T16:32:51;14.40;73.09
67586;SHT31;55785;47.946;20.540;2022-10-16T16:35:16;14.41;72.97
67586;SHT31;55785;47.946;20.540;2022-10-16T16:37:41;14.40;73.31
67586;SHT31;55785;47.946;20.540;2022-10-16T16:40:07;14.39;73.59
67586;SHT31;55785;47.946;20.540;2022-10-16T16:42:32;14.40;73.91
67586;SHT31;55785;47.946;20.540;2022-10-16T16:44:57;14.30;74.29
67586;SHT31;55785;47.946;20.540;2022-10-16T16:47:23;14.25;74.42
67586;SHT31;55785;47.946;20.540;2022-10-16T16:49:48;14.28;74.58
67586;SHT31;55785;47.946;20.540;2022-10-16T16:52:14;14.16;74.54
67586;SHT31;55785;47.946;20.540;2022-10-16T16:54:39;14.15;74.68
67586;SHT31;55785;47.946;20.540;2022-10-16T16:57:05;14.16;74.63
67586;SHT31;55785;47.946;20.540;2022-10-16T16:59:30;14.20;74.61
67586;SHT31;55785;47.946;20.540;2022-10-16T17:01:56;14.20;74.72
67586;SHT31;55785;47.946;20.540;2022-10-16T17:04:21;14.20;75.09
67586;SHT31;55785;47.946;20.540;2022-10-16T17:06:46;14.12;75.63
67586;SHT31;55785;47.946;20.540;2022-10-16T17:09:11;14.06;75.68
67586;SHT31;55785;47.946;20.540;2022-10-16T17:11:37;14.10;75.43
67586;SHT31;55785;47.946;20.540;2022-10-16T17:14:02;14.05;75.38
67586;SHT31;55785;47.946;20.540;2022-10-16T17:16:30;14.04;74.88
67586;SHT31;55785;47.946;20.540;2022-10-16T17:18:59;14.09;74.78
67586;SHT31;55785;47.946;20.540;2022-10-16T17:21:25;14.10;74.69
67586;SHT31;55785;47.946;20.540;2022-10-16T17:23:51;14.05;74.62